sensor_id;sensor_type;location;lat;lon;timestamp;P1;durP1;ratioP1;P2;durP2;ratioP2
41705;SDS011;27385;51.096;17.190;2023-03-13T00:01:43;15.40;;;3.60;;
41705;SDS011;27385;51.096;17.190;2023-03-13T00:04:15;13.10;;;3.30;;
41705;SDS011;27385;51.096;17.190;2023-03-13T00:06:46;13.10;;;3.00;;
41705;SDS011;27385;51.096;17.190;2023-03-13T00:09:17;10.20;;;3.30;;
41705;SDS011;27385;51.096;17.190;2023-03-13T00:11:49;12.40;;;2.90;;
41705;SDS011;27385;51.096;17.190;2023-03-13T00:14:20;11.60;;;2.50;;
41705;SDS011;27385;51.096;17.190;2023-03-13T00:16:51;8.10;;;2.00;;
41705;SDS011;27385;51.096;17.190;2023-03-13T00:19:22;9.80;;;2.20;;
41705;SDS011;27385;51.096;17.190;2023-03-13T00:21:52;9.90;;;2.30;;
41705;SDS011;27385;51.096;17.190;2023-03-13T00:24:23;9.60;;;2.20;;
41705;SDS011;27385;51.096;17.190;2023-03-13T00:26:55;11.40;;;2.20;;
41705;SDS011;27385;51.096;17.190;2023-03-13T00:29:31;7.10;;;1.60;;
41705;SDS011;27385;51.096;17.190;2023-03-13T00:32:03;6.90;;;1.50;;
41705;SDS011;27385;51.096;17.190;2023-03-13T00:34:34;9.70;;;1.90;;
41705;SDS011;27385;51.096;17.190;2023-03-13T00:37:05;6.10;;;2.00;;
41705;SDS011;27385;51.096;17.190;2023-03-13T00:39:36;11.20;;;1.90;;
41705;SDS011;27385;51.096;17.190;2023-03-13T00:42:06;8.70;;;2.20;;
41705;SDS011;27385;51.096;17.190;2023-03-13T00:44:37;13.90;;;4.20;;
41705;SDS011;27385;51.096;17.190;2023-03-13T00:47:08;13.10;;;5.10;;
41705;SDS011;27385;51.096;17.190;2023-03-13T00:49:38;10.80;;;3.10;;
41705;SDS011;27385;51.096;17.190;2023-03-13T00:52:09;8.60;;;1.80;;
41705;SDS011;27385;51.096;17.190;2023-03-13T00:54:40;7.00;;;1.60;;
41705;SDS011;27385;51.096;17.190;2023-03-13T00:57:11;7.60;;;2.00;;
41705;SDS011;27385;51.096;17.190;2023-03-13T00:59:42;7.50;;;1.80;;
41705;SDS011;27385;51.096;17.190;2023-03-13T01:02:12;8.10;;;1.80;;
41705;SDS011;27385;51.096;17.190;2023-03-13T01:04:43;9.60;;;1.40;;
41705;SDS011;27385;51.096;17.190;2023-03-13T01:07:14;8.90;;;1.60;;
41705;SDS011;27385;51.096;17.190;2023-03-13T01:09:44;7.90;;;1.80;;
41705;SDS011;27385;51.096;17.190;2023-03-13T01:12:16;6.70;;;1.60;;
41705;SDS011;27385;51.096;17.190;2023-03-13T01:14:48;9.80;;;2.10;;
41705;SDS011;27385;51.096;17.190;2023-03-13T01:17:19;6.60;;;1.80;;
41705;SDS011;27385;51.096;17.190;2023-03-13T01:19:49;9.00;;;1.90;;
41705;SDS011;27385;51.096;17.190;2023-03-13T01:22:23;5.30;;;1.30;;
41705;SDS011;27385;51.096;17.190;2023-03-13T01:24:54;8.50;;;1.90;;
41705;SDS011;27385;51.096;17.190;2023-03-13T01:27:25;9.40;;;2.30;;
41705;SDS011;27385;51.096;17.190;2023-03-13T01:29:56;8.20;;;1.90;;
41705;SDS011;27385;51.096;17.190;2023-03-13T01:32:27;8.10;;;1.90;;
41705;SDS011;27385;51.096;17.190;2023-03-13T01:35:00;6.40;;;2.00;;
41705;SDS011;27385;51.096;17.190;2023-03-13T01:37:31;8.60;;;1.80;;
41705;SDS011;27385;51.096;17.190;2023-03-13T01:40:03;7.40;;;1.80;;
41705;SDS011;27385;51.096;17.190;2023-03-13T01:48:25;7.00;;;2.00;;
41705;SDS011;27385;51.096;17.190;2023-03-13T01:51:00;9.70;;;2.20;;
41705;SDS011;27385;51.096;17.190;2023-03-13T01:53:35;7.70;;;2.10;;
41705;SDS011;27385;51.096;17.190;2023-03-13T01:56:10;6.30;;;1.70;;
41705;SDS011;27385;51.096;17.190;2023-03-13T01:58:45;9.70;;;2.20;;
41705;SDS011;27385;51.096;17.190;2023-03-13T02:01:18;9.10;;;2.40;;
41705;SDS011;27385;51.096;17.190;2023-03-13T02:03:51;11.10;;;2.50;;
41705;SDS011;27385;51.096;17.190;2023-03-13T02:06:24;6.60;;;2.20;;
41705;SDS011;27385;51.096;17.190;2023-03-13T02:09:00;10.50;;;2.30;;
41705;SDS011;27385;51.096;17.190;2023-03-13T02:11:38;9.30;;;2.50;;
41705;SDS011;27385;51.096;17.190;2023-03-13T02:14:16;10.40;;;2.30;;
41705;SDS011;27385;51.096;17.190;2023-03-13T02:16:49;10.60;;;2.20;;
41705;SDS011;27385;51.096;17.190;2023-03-13T02:19:23;8.90;;;2.00;;
41705;SDS011;27385;51.096;17.190;2023-03-13T02:22:04;11.30;;;2.40;;
41705;SDS011;27385;51.096;17.190;2023-03-13T02:24:49;7.40;;;1.70;;
41705;SDS011;27385;51.096;17.190;2023-03-13T02:27:29;9.10;;;2.70;;
41705;SDS011;27385;51.096;17.190;2023-03-13T02:30:00;12.00;;;2.90;;
41705;SDS011;27385;51.096;17.190;2023-03-13T02:32:32;13.60;;;2.70;;
41705;SDS011;27385;51.096;17.190;2023-03-13T02:35:05;12.10;;;3.30;;
41705;SDS011;27385;51.096;17.190;2023-03-13T02:37:39;9.00;;;2.30;;
41705;SDS011;27385;51.096;17.190;2023-03-13T02:40:12;10.70;;;2.70;;
41705;SDS011;27385;51.096;17.190;2023-03-13T02:42:46;11.10;;;3.00;;
41705;SDS011;27385;51.096;17.190;2023-03-13T02:45:18;12.30;;;3.40;;
41705;SDS011;27385;51.096;17.190;2023-03-13T02:47:49;10.90;;;2.90;;
41705;SDS011;27385;51.096;17.190;2023-03-13T02:50:20;18.60;;;4.00;;
41705;SDS011;27385;51.096;17.190;2023-03-13T02:52:51;12.50;;;3.80;;
41705;SDS011;27385;51.096;17.190;2023-03-13T02:55:28;12.50;;;4.90;;
41705;SDS011;27385;51.096;17.190;2023-03-13T02:58:03;16.80;;;4.30;;
41705;SDS011;27385;51.096;17.190;2023-03-13T03:00:34;13.10;;;4.00;;
41705;SDS011;27385;51.096;17.190;2023-03-13T03:03:05;15.90;;;4.70;;
41705;SDS011;27385;51.096;17.190;2023-03-13T03:05:36;17.30;;;4.40;;
41705;SDS011;27385;51.096;17.190;2023-03-13T03:08:07;18.30;;;5.00;;
41705;SDS011;27385;51.096;17.190;2023-03-13T03:10:38;18.10;;;6.20;;
41705;SDS011;27385;51.096;17.190;2023-03-13T03:13:09;17.40;;;6.00;;
41705;SDS011;27385;51.096;17.190;2023-03-13T03:15:40;16.30;;;5.50;;
41705;SDS011;27385;51.096;17.190;2023-03-13T03:18:11;18.00;;;6.30;;
41705;SDS011;27385;51.096;17.190;2023-03-13T03:20:42;15.50;;;5.30;;
41705;SDS011;27385;51.096;17.190;2023-03-13T03:23:12;18.50;;;6.10;;
41705;SDS011;27385;51.096;17.190;2023-03-13T03:25:43;14.90;;;5.60;;
41705;SDS011;27385;51.096;17.190;2023-03-13T03:28:14;14.70;;;4.60;;
41705;SDS011;27385;51.096;17.190;2023-03-13T03:30:44;15.60;;;6.20;;
41705;SDS011;27385;51.096;17.190;2023-03-13T03:33:15;14.80;;;6.00;;
41705;SDS011;27385;51.096;17.190;2023-03-13T03:35:46;14.10;;;5.20;;
41705;SDS011;27385;51.096;17.190;2023-03-13T03:38:17;18.20;;;5.90;;
41705;SDS011;27385;51.096;17.190;2023-03-13T03:40:48;16.70;;;6.60;;
41705;SDS011;27385;51.096;17.190;2023-03-13T03:43:19;20.40;;;7.50;;
41705;SDS011;27385;51.096;17.190;2023-03-13T03:45:50;20.30;;;7.00;;
41705;SDS011;27385;51.096;17.190;2023-03-13T03:48:21;19.40;;;7.10;;
41705;SDS011;27385;51.096;17.190;2023-03-13T03:50:52;16.80;;;6.50;;
41705;SDS011;27385;51.096;17.190;2023-03-13T03:53:23;19.10;;;7.10;;
41705;SDS011;27385;51.096;17.190;2023-03-13T03:55:54;19.60;;;7.70;;
41705;SDS011;27385;51.096;17.190;2023-03-13T03:58:25;17.00;;;6.80;;
41705;SDS011;27385;51.096;17.190;2023-03-13T04:00:56;22.90;;;8.20;;
41705;SDS011;27385;51.096;17.190;2023-03-13T04:03:27;22.20;;;8.80;;
41705;SDS011;27385;51.096;17.190;2023-03-13T04:05:58;21.80;;;6.80;;
41705;SDS011;27385;51.096;17.190;2023-03-13T04:08:29;21.00;;;8.00;;
41705;SDS011;27385;51.096;17.190;2023-03-13T04:11:00;19.70;;;7.50;;
41705;SDS011;27385;51.096;17.190;2023-03-13T04:13:31;21.50;;;7.50;;
41705;SDS011;27385;51.096;17.190;2023-03-13T04:16:06;23.30;;;9.00;;
41705;SDS011;27385;51.096;17.190;2023-03-13T04:18:37;25.20;;;8.40;;
41705;SDS011;27385;51.096;17.190;2023-03-13T04:21:08;22.90;;;8.00;;
41705;SDS011;27385;51.096;17.190;2023-03-13T04:23:39;23.20;;;9.00;;
41705;SDS011;27385;51.096;17.190;2023-03-13T04:26:09;24.20;;;8.30;;
41705;SDS011;27385;51.096;17.190;2023-03-13T04:28:41;27.60;;;9.00;;
41705;SDS011;27385;51.096;17.190;2023-03-13T04:31:11;23.30;;;9.50;;
41705;SDS011;27385;51.096;17.190;2023-03-13T04:33:42;28.80;;;11.00;;
41705;SDS011;27385;51.096;17.190;2023-03-13T04:36:13;28.90;;;10.00;;
41705;SDS011;27385;51.096;17.190;2023-03-13T04:38:44;25.60;;;10.00;;
41705;SDS011;27385;51.096;17.190;2023-03-13T04:41:15;28.00;;;11.00;;
41705;SDS011;27385;51.096;17.190;2023-03-13T04:43:45;22.80;;;9.60;;
41705;SDS011;27385;51.096;17.190;2023-03-13T04:46:16;23.60;;;9.80;;
41705;SDS011;27385;51.096;17.190;2023-03-13T04:48:47;23.30;;;8.90;;
41705;SDS011;27385;51.096;17.190;2023-03-13T04:51:18;24.10;;;9.60;;
41705;SDS011;27385;51.096;17.190;2023-03-13T04:53:49;26.00;;;9.90;;
41705;SDS011;27385;51.096;17.190;2023-03-13T04:56:21;23.90;;;9.50;;
41705;SDS011;27385;51.096;17.190;2023-03-13T04:58:55;25.50;;;9.50;;
41705;SDS011;27385;51.096;17.190;2023-03-13T05:01:25;22.80;;;9.20;;
41705;SDS011;27385;51.096;17.190;2023-03-13T05:03:56;25.20;;;9.40;;
41705;SDS011;27385;51.096;17.190;2023-03-13T05:06:27;24.70;;;9.20;;
41705;SDS011;27385;51.096;17.190;2023-03-13T05:08:58;27.40;;;10.20;;
41705;SDS011;27385;51.096;17.190;2023-03-13T05:11:30;22.90;;;7.60;;
41705;SDS011;27385;51.096;17.190;2023-03-13T05:14:02;24.40;;;8.50;;
41705;SDS011;27385;51.096;17.190;2023-03-13T05:16:35;23.60;;;8.30;;
41705;SDS011;27385;51.096;17.190;2023-03-13T05:19:06;25.10;;;9.60;;
41705;SDS011;27385;51.096;17.190;2023-03-13T05:21:38;22.90;;;7.80;;
41705;SDS011;27385;51.096;17.190;2023-03-13T05:24:08;28.20;;;8.30;;
41705;SDS011;27385;51.096;17.190;2023-03-13T05:26:39;20.90;;;7.20;;
41705;SDS011;27385;51.096;17.190;2023-03-13T05:29:10;21.70;;;9.10;;
41705;SDS011;27385;51.096;17.190;2023-03-13T05:31:41;22.60;;;8.40;;
41705;SDS011;27385;51.096;17.190;2023-03-13T05:34:11;27.70;;;10.10;;
41705;SDS011;27385;51.096;17.190;2023-03-13T05:36:42;25.60;;;10.40;;
41705;SDS011;27385;51.096;17.190;2023-03-13T05:39:13;28.10;;;10.70;;
41705;SDS011;27385;51.096;17.190;2023-03-13T05:41:44;24.80;;;10.00;;
41705;SDS011;27385;51.096;17.190;2023-03-13T05:44:15;26.90;;;10.70;;
41705;SDS011;27385;51.096;17.190;2023-03-13T05:46:46;25.10;;;10.10;;
41705;SDS011;27385;51.096;17.190;2023-03-13T05:49:16;32.10;;;12.50;;
41705;SDS011;27385;51.096;17.190;2023-03-13T05:51:47;28.90;;;10.20;;
41705;SDS011;27385;51.096;17.190;2023-03-13T05:54:18;33.30;;;11.00;;
41705;SDS011;27385;51.096;17.190;2023-03-13T05:56:49;28.60;;;11.30;;
41705;SDS011;27385;51.096;17.190;2023-03-13T05:59:19;28.00;;;12.00;;
41705;SDS011;27385;51.096;17.190;2023-03-13T06:01:50;33.40;;;12.20;;
41705;SDS011;27385;51.096;17.190;2023-03-13T06:04:21;28.80;;;10.60;;
41705;SDS011;27385;51.096;17.190;2023-03-13T06:06:52;27.30;;;11.20;;
41705;SDS011;27385;51.096;17.190;2023-03-13T06:09:23;26.70;;;10.80;;
41705;SDS011;27385;51.096;17.190;2023-03-13T06:11:54;24.80;;;10.80;;
41705;SDS011;27385;51.096;17.190;2023-03-13T06:14:25;28.20;;;10.20;;
41705;SDS011;27385;51.096;17.190;2023-03-13T06:16:56;30.70;;;11.40;;
41705;SDS011;27385;51.096;17.190;2023-03-13T06:19:27;24.00;;;9.00;;
41705;SDS011;27385;51.096;17.190;2023-03-13T06:21:58;27.40;;;11.00;;
41705;SDS011;27385;51.096;17.190;2023-03-13T06:24:29;24.80;;;10.90;;
41705;SDS011;27385;51.096;17.190;2023-03-13T06:27:00;28.80;;;10.70;;
41705;SDS011;27385;51.096;17.190;2023-03-13T06:29:31;21.20;;;9.10;;
41705;SDS011;27385;51.096;17.190;2023-03-13T06:32:03;26.10;;;9.10;;
41705;SDS011;27385;51.096;17.190;2023-03-13T06:34:34;28.60;;;10.60;;
41705;SDS011;27385;51.096;17.190;2023-03-13T06:37:06;27.00;;;9.50;;
41705;SDS011;27385;51.096;17.190;2023-03-13T06:39:36;22.30;;;9.70;;
41705;SDS011;27385;51.096;17.190;2023-03-13T06:42:08;23.00;;;9.40;;
41705;SDS011;27385;51.096;17.190;2023-03-13T06:44:39;31.40;;;10.50;;
41705;SDS011;27385;51.096;17.190;2023-03-13T06:47:10;25.20;;;9.60;;
41705;SDS011;27385;51.096;17.190;2023-03-13T06:49:41;25.10;;;9.50;;
41705;SDS011;27385;51.096;17.190;2023-03-13T06:52:12;27.50;;;11.60;;
41705;SDS011;27385;51.096;17.190;2023-03-13T06:54:43;22.90;;;10.90;;
41705;SDS011;27385;51.096;17.190;2023-03-13T06:57:14;17.30;;;7.10;;
41705;SDS011;27385;51.096;17.190;2023-03-13T06:59:46;22.90;;;7.50;;
41705;SDS011;27385;51.096;17.190;2023-03-13T07:02:16;23.40;;;7.60;;
41705;SDS011;27385;51.096;17.190;2023-03-13T07:04:47;21.70;;;7.60;;
41705;SDS011;27385;51.096;17.190;2023-03-13T07:07:19;22.20;;;8.00;;
41705;SDS011;27385;51.096;17.190;2023-03-13T07:09:51;22.30;;;9.70;;
41705;SDS011;27385;51.096;17.190;2023-03-13T07:12:30;24.70;;;9.80;;
41705;SDS011;27385;51.096;17.190;2023-03-13T07:15:02;20.10;;;8.10;;
41705;SDS011;27385;51.096;17.190;2023-03-13T07:17:34;22.60;;;8.00;;
41705;SDS011;27385;51.096;17.190;2023-03-13T07:20:26;18.50;;;7.30;;
41705;SDS011;27385;51.096;17.190;2023-03-13T07:22:56;27.20;;;9.00;;
41705;SDS011;27385;51.096;17.190;2023-03-13T07:25:27;23.30;;;7.90;;
41705;SDS011;27385;51.096;17.190;2023-03-13T07:27:58;25.60;;;7.70;;
41705;SDS011;27385;51.096;17.190;2023-03-13T07:30:31;25.70;;;9.50;;
41705;SDS011;27385;51.096;17.190;2023-03-13T07:33:02;28.20;;;10.70;;
41705;SDS011;27385;51.096;17.190;2023-03-13T07:35:33;19.10;;;5.90;;
41705;SDS011;27385;51.096;17.190;2023-03-13T07:38:04;22.60;;;7.40;;
41705;SDS011;27385;51.096;17.190;2023-03-13T07:40:35;20.20;;;5.00;;
41705;SDS011;27385;51.096;17.190;2023-03-13T07:43:06;15.60;;;5.20;;
41705;SDS011;27385;51.096;17.190;2023-03-13T07:45:37;16.20;;;4.50;;
41705;SDS011;27385;51.096;17.190;2023-03-13T07:48:19;20.70;;;4.60;;
41705;SDS011;27385;51.096;17.190;2023-03-13T07:50:54;17.40;;;3.90;;
41705;SDS011;27385;51.096;17.190;2023-03-13T07:53:25;10.70;;;3.00;;
41705;SDS011;27385;51.096;17.190;2023-03-13T07:55:58;15.10;;;3.20;;
41705;SDS011;27385;51.096;17.190;2023-03-13T07:58:30;18.10;;;3.90;;
41705;SDS011;27385;51.096;17.190;2023-03-13T08:01:08;11.70;;;2.70;;
41705;SDS011;27385;51.096;17.190;2023-03-13T08:03:43;18.00;;;2.60;;
41705;SDS011;27385;51.096;17.190;2023-03-13T08:06:23;11.20;;;2.50;;
41705;SDS011;27385;51.096;17.190;2023-03-13T08:08:57;18.90;;;2.80;;
41705;SDS011;27385;51.096;17.190;2023-03-13T08:11:29;16.70;;;3.10;;
41705;SDS011;27385;51.096;17.190;2023-03-13T08:14:02;12.30;;;3.20;;
41705;SDS011;27385;51.096;17.190;2023-03-13T08:16:34;14.40;;;2.40;;
41705;SDS011;27385;51.096;17.190;2023-03-13T08:19:05;7.60;;;1.90;;
41705;SDS011;27385;51.096;17.190;2023-03-13T08:21:36;16.70;;;2.70;;
41705;SDS011;27385;51.096;17.190;2023-03-13T08:24:14;15.50;;;2.00;;
41705;SDS011;27385;51.096;17.190;2023-03-13T08:26:45;11.50;;;2.00;;
41705;SDS011;27385;51.096;17.190;2023-03-13T08:29:17;14.30;;;2.20;;
41705;SDS011;27385;51.096;17.190;2023-03-13T08:34:39;20.70;;;2.70;;
41705;SDS011;27385;51.096;17.190;2023-03-13T08:37:15;16.50;;;2.70;;
41705;SDS011;27385;51.096;17.190;2023-03-13T08:40:01;12.70;;;1.60;;
41705;SDS011;27385;51.096;17.190;2023-03-13T08:42:38;12.20;;;2.10;;
41705;SDS011;27385;51.096;17.190;2023-03-13T08:45:10;15.10;;;2.00;;
41705;SDS011;27385;51.096;17.190;2023-03-13T08:47:40;16.10;;;2.00;;
41705;SDS011;27385;51.096;17.190;2023-03-13T08:50:12;12.00;;;2.50;;
41705;SDS011;27385;51.096;17.190;2023-03-13T08:52:44;11.90;;;1.60;;
41705;SDS011;27385;51.096;17.190;2023-03-13T08:55:15;15.00;;;2.50;;
41705;SDS011;27385;51.096;17.190;2023-03-13T08:57:46;14.40;;;2.30;;
41705;SDS011;27385;51.096;17.190;2023-03-13T09:00:18;11.90;;;1.90;;
41705;SDS011;27385;51.096;17.190;2023-03-13T09:02:50;15.90;;;1.70;;
41705;SDS011;27385;51.096;17.190;2023-03-13T09:05:21;13.60;;;1.80;;
41705;SDS011;27385;51.096;17.190;2023-03-13T09:07:53;13.30;;;2.10;;
41705;SDS011;27385;51.096;17.190;2023-03-13T09:10:24;13.00;;;1.50;;
41705;SDS011;27385;51.096;17.190;2023-03-13T09:12:56;12.30;;;1.30;;
41705;SDS011;27385;51.096;17.190;2023-03-13T09:15:27;11.20;;;1.30;;
41705;SDS011;27385;51.096;17.190;2023-03-13T09:17:58;12.90;;;2.00;;
41705;SDS011;27385;51.096;17.190;2023-03-13T09:20:29;14.40;;;2.10;;
41705;SDS011;27385;51.096;17.190;2023-03-13T09:23:00;18.60;;;2.00;;
41705;SDS011;27385;51.096;17.190;2023-03-13T09:25:32;12.90;;;1.40;;
41705;SDS011;27385;51.096;17.190;2023-03-13T09:28:06;15.50;;;1.80;;
41705;SDS011;27385;51.096;17.190;2023-03-13T09:30:37;14.40;;;2.00;;
41705;SDS011;27385;51.096;17.190;2023-03-13T09:33:09;14.20;;;1.60;;
41705;SDS011;27385;51.096;17.190;2023-03-13T09:38:33;11.10;;;1.60;;
41705;SDS011;27385;51.096;17.190;2023-03-13T09:41:12;10.30;;;1.50;;
41705;SDS011;27385;51.096;17.190;2023-03-13T09:43:52;11.50;;;1.70;;
41705;SDS011;27385;51.096;17.190;2023-03-13T09:46:32;9.90;;;1.40;;
41705;SDS011;27385;51.096;17.190;2023-03-13T09:49:19;11.70;;;1.70;;
41705;SDS011;27385;51.096;17.190;2023-03-13T09:51:59;10.50;;;1.90;;
41705;SDS011;27385;51.096;17.190;2023-03-13T09:54:44;16.40;;;3.00;;
41705;SDS011;27385;51.096;17.190;2023-03-13T09:57:24;19.60;;;1.80;;
41705;SDS011;27385;51.096;17.190;2023-03-13T10:00:01;18.90;;;2.80;;
41705;SDS011;27385;51.096;17.190;2023-03-13T10:02:43;11.40;;;1.50;;
41705;SDS011;27385;51.096;17.190;2023-03-13T10:05:23;12.30;;;2.20;;
41705;SDS011;27385;51.096;17.190;2023-03-13T10:08:00;8.90;;;1.30;;
41705;SDS011;27385;51.096;17.190;2023-03-13T10:10:44;13.80;;;1.30;;
41705;SDS011;27385;51.096;17.190;2023-03-13T10:13:21;15.10;;;1.50;;
41705;SDS011;27385;51.096;17.190;2023-03-13T10:15:57;7.30;;;0.90;;
41705;SDS011;27385;51.096;17.190;2023-03-13T10:18:31;12.30;;;1.30;;
41705;SDS011;27385;51.096;17.190;2023-03-13T10:21:03;11.10;;;1.70;;
41705;SDS011;27385;51.096;17.190;2023-03-13T10:23:45;10.10;;;1.40;;
41705;SDS011;27385;51.096;17.190;2023-03-13T10:26:22;13.20;;;1.30;;
41705;SDS011;27385;51.096;17.190;2023-03-13T10:28:57;13.70;;;1.80;;
41705;SDS011;27385;51.096;17.190;2023-03-13T10:31:47;14.00;;;1.90;;
41705;SDS011;27385;51.096;17.190;2023-03-13T10:34:25;12.00;;;1.30;;
41705;SDS011;27385;51.096;17.190;2023-03-13T10:36:58;9.40;;;1.40;;
41705;SDS011;27385;51.096;17.190;2023-03-13T10:39:44;14.50;;;1.30;;
41705;SDS011;27385;51.096;17.190;2023-03-13T10:42:19;10.70;;;1.50;;
41705;SDS011;27385;51.096;17.190;2023-03-13T10:44:58;10.80;;;1.30;;
41705;SDS011;27385;51.096;17.190;2023-03-13T10:47:35;14.50;;;1.40;;
41705;SDS011;27385;51.096;17.190;2023-03-13T10:50:11;9.50;;;1.50;;
41705;SDS011;27385;51.096;17.190;2023-03-13T10:52:49;13.00;;;1.60;;
41705;SDS011;27385;51.096;17.190;2023-03-13T10:55:23;12.10;;;1.90;;
41705;SDS011;27385;51.096;17.190;2023-03-13T10:57:56;15.70;;;1.50;;
41705;SDS011;27385;51.096;17.190;2023-03-13T11:00:29;15.30;;;1.70;;
41705;SDS011;27385;51.096;17.190;2023-03-13T11:03:12;11.80;;;1.50;;
41705;SDS011;27385;51.096;17.190;2023-03-13T11:05:52;8.70;;;1.30;;
41705;SDS011;27385;51.096;17.190;2023-03-13T11:08:26;13.50;;;1.50;;
41705;SDS011;27385;51.096;17.190;2023-03-13T11:11:03;15.90;;;1.90;;
41705;SDS011;27385;51.096;17.190;2023-03-13T11:13:45;11.90;;;1.40;;
41705;SDS011;27385;51.096;17.190;2023-03-13T11:16:18;12.60;;;1.50;;
41705;SDS011;27385;51.096;17.190;2023-03-13T11:18:59;11.10;;;2.50;;
41705;SDS011;27385;51.096;17.190;2023-03-13T11:21:52;11.30;;;1.70;;
41705;SDS011;27385;51.096;17.190;2023-03-13T11:24:38;16.10;;;1.70;;
41705;SDS011;27385;51.096;17.190;2023-03-13T11:27:16;17.10;;;2.10;;
41705;SDS011;27385;51.096;17.190;2023-03-13T11:29:59;10.50;;;1.50;;
41705;SDS011;27385;51.096;17.190;2023-03-13T11:32:41;13.30;;;1.40;;
41705;SDS011;27385;51.096;17.190;2023-03-13T11:35:20;10.30;;;1.20;;
41705;SDS011;27385;51.096;17.190;2023-03-13T11:38:11;14.30;;;2.00;;
41705;SDS011;27385;51.096;17.190;2023-03-13T11:40:50;22.70;;;2.10;;
41705;SDS011;27385;51.096;17.190;2023-03-13T11:43:34;14.60;;;1.20;;
41705;SDS011;27385;51.096;17.190;2023-03-13T11:46:21;14.10;;;1.50;;
41705;SDS011;27385;51.096;17.190;2023-03-13T11:49:11;15.60;;;1.50;;
41705;SDS011;27385;51.096;17.190;2023-03-13T11:51:56;7.70;;;1.00;;
41705;SDS011;27385;51.096;17.190;2023-03-13T11:54:48;8.60;;;1.00;;
41705;SDS011;27385;51.096;17.190;2023-03-13T11:57:39;13.30;;;1.20;;
41705;SDS011;27385;51.096;17.190;2023-03-13T12:00:21;12.80;;;1.60;;
41705;SDS011;27385;51.096;17.190;2023-03-13T12:03:03;14.30;;;2.70;;
41705;SDS011;27385;51.096;17.190;2023-03-13T12:05:42;17.80;;;2.30;;
41705;SDS011;27385;51.096;17.190;2023-03-13T12:08:18;12.30;;;1.60;;
41705;SDS011;27385;51.096;17.190;2023-03-13T12:10:57;16.50;;;1.50;;
41705;SDS011;27385;51.096;17.190;2023-03-13T12:13:39;13.60;;;1.50;;
41705;SDS011;27385;51.096;17.190;2023-03-13T12:16:14;14.60;;;1.40;;
41705;SDS011;27385;51.096;17.190;2023-03-13T12:18:49;11.40;;;1.40;;
41705;SDS011;27385;51.096;17.190;2023-03-13T12:21:25;12.00;;;1.40;;
41705;SDS011;27385;51.096;17.190;2023-03-13T12:24:03;9.80;;;1.40;;
41705;SDS011;27385;51.096;17.190;2023-03-13T12:26:45;9.20;;;1.20;;
41705;SDS011;27385;51.096;17.190;2023-03-13T12:29:23;14.10;;;1.90;;
41705;SDS011;27385;51.096;17.190;2023-03-13T12:32:03;13.30;;;1.80;;
41705;SDS011;27385;51.096;17.190;2023-03-13T12:34:45;11.40;;;1.60;;
41705;SDS011;27385;51.096;17.190;2023-03-13T12:37:32;14.40;;;1.40;;
41705;SDS011;27385;51.096;17.190;2023-03-13T12:40:13;8.60;;;1.10;;
41705;SDS011;27385;51.096;17.190;2023-03-13T12:42:50;11.80;;;1.40;;
41705;SDS011;27385;51.096;17.190;2023-03-13T12:45:27;7.10;;;1.20;;
41705;SDS011;27385;51.096;17.190;2023-03-13T12:51:11;3.90;;;0.60;;
41705;SDS011;27385;51.096;17.190;2023-03-13T12:54:08;7.60;;;0.80;;
41705;SDS011;27385;51.096;17.190;2023-03-13T13:00:10;8.60;;;1.40;;
41705;SDS011;27385;51.096;17.190;2023-03-13T13:02:46;6.60;;;0.70;;
41705;SDS011;27385;51.096;17.190;2023-03-13T13:05:30;4.50;;;0.60;;
41705;SDS011;27385;51.096;17.190;2023-03-13T13:08:01;8.60;;;0.90;;
41705;SDS011;27385;51.096;17.190;2023-03-13T13:10:33;9.00;;;0.90;;
41705;SDS011;27385;51.096;17.190;2023-03-13T13:13:17;6.30;;;0.70;;
41705;SDS011;27385;51.096;17.190;2023-03-13T13:16:01;5.30;;;0.70;;
41705;SDS011;27385;51.096;17.190;2023-03-13T13:18:36;6.10;;;0.80;;
41705;SDS011;27385;51.096;17.190;2023-03-13T13:21:20;6.40;;;0.70;;
41705;SDS011;27385;51.096;17.190;2023-03-13T13:23:54;7.20;;;0.90;;
41705;SDS011;27385;51.096;17.190;2023-03-13T13:26:58;5.90;;;1.00;;
41705;SDS011;27385;51.096;17.190;2023-03-13T13:32:36;6.70;;;0.90;;
41705;SDS011;27385;51.096;17.190;2023-03-13T13:35:19;5.60;;;1.00;;
41705;SDS011;27385;51.096;17.190;2023-03-13T13:41:26;6.90;;;1.00;;
41705;SDS011;27385;51.096;17.190;2023-03-13T13:44:27;8.30;;;1.20;;
41705;SDS011;27385;51.096;17.190;2023-03-13T13:46:58;9.00;;;1.10;;
41705;SDS011;27385;51.096;17.190;2023-03-13T13:49:32;8.20;;;1.20;;
41705;SDS011;27385;51.096;17.190;2023-03-13T13:58:01;9.80;;;1.00;;
41705;SDS011;27385;51.096;17.190;2023-03-13T14:00:36;8.70;;;1.30;;
41705;SDS011;27385;51.096;17.190;2023-03-13T14:03:17;9.00;;;1.20;;
41705;SDS011;27385;51.096;17.190;2023-03-13T14:05:51;8.00;;;1.20;;
41705;SDS011;27385;51.096;17.190;2023-03-13T14:08:26;6.00;;;1.00;;
41705;SDS011;27385;51.096;17.190;2023-03-13T14:11:06;9.10;;;1.30;;
41705;SDS011;27385;51.096;17.190;2023-03-13T14:16:40;7.50;;;1.40;;
41705;SDS011;27385;51.096;17.190;2023-03-13T14:19:21;7.80;;;1.20;;
41705;SDS011;27385;51.096;17.190;2023-03-13T14:22:00;10.60;;;1.10;;
41705;SDS011;27385;51.096;17.190;2023-03-13T14:24:32;8.00;;;1.30;;
41705;SDS011;27385;51.096;17.190;2023-03-13T14:27:15;8.30;;;1.20;;
41705;SDS011;27385;51.096;17.190;2023-03-13T14:30:01;7.60;;;1.30;;
41705;SDS011;27385;51.096;17.190;2023-03-13T14:32:33;11.70;;;1.40;;
41705;SDS011;27385;51.096;17.190;2023-03-13T14:35:05;6.10;;;1.00;;
41705;SDS011;27385;51.096;17.190;2023-03-13T14:37:40;11.10;;;1.60;;
41705;SDS011;27385;51.096;17.190;2023-03-13T14:40:19;7.70;;;1.10;;
41705;SDS011;27385;51.096;17.190;2023-03-13T14:42:54;4.80;;;1.20;;
41705;SDS011;27385;51.096;17.190;2023-03-13T14:45:28;5.10;;;1.10;;
41705;SDS011;27385;51.096;17.190;2023-03-13T14:48:02;11.50;;;1.30;;
41705;SDS011;27385;51.096;17.190;2023-03-13T14:50:45;9.10;;;1.10;;
41705;SDS011;27385;51.096;17.190;2023-03-13T14:53:18;9.50;;;1.90;;
41705;SDS011;27385;51.096;17.190;2023-03-13T14:56:07;7.70;;;1.30;;
41705;SDS011;27385;51.096;17.190;2023-03-13T14:58:46;6.90;;;1.30;;
41705;SDS011;27385;51.096;17.190;2023-03-13T15:01:22;8.10;;;1.20;;
41705;SDS011;27385;51.096;17.190;2023-03-13T15:03:57;12.20;;;1.30;;
41705;SDS011;27385;51.096;17.190;2023-03-13T15:06:28;7.60;;;1.00;;
41705;SDS011;27385;51.096;17.190;2023-03-13T15:09:19;10.40;;;1.30;;
41705;SDS011;27385;51.096;17.190;2023-03-13T15:11:58;6.80;;;1.20;;
41705;SDS011;27385;51.096;17.190;2023-03-13T15:14:33;6.70;;;0.90;;
41705;SDS011;27385;51.096;17.190;2023-03-13T15:17:12;7.40;;;1.10;;
41705;SDS011;27385;51.096;17.190;2023-03-13T15:19:49;7.20;;;1.20;;
41705;SDS011;27385;51.096;17.190;2023-03-13T15:22:24;9.80;;;1.70;;
41705;SDS011;27385;51.096;17.190;2023-03-13T15:24:57;7.50;;;1.20;;
41705;SDS011;27385;51.096;17.190;2023-03-13T15:27:29;6.80;;;1.10;;
41705;SDS011;27385;51.096;17.190;2023-03-13T15:30:00;7.00;;;1.20;;
41705;SDS011;27385;51.096;17.190;2023-03-13T15:32:33;7.30;;;1.10;;
41705;SDS011;27385;51.096;17.190;2023-03-13T15:35:10;6.70;;;1.10;;
41705;SDS011;27385;51.096;17.190;2023-03-13T15:37:54;6.80;;;1.20;;
41705;SDS011;27385;51.096;17.190;2023-03-13T15:40:25;4.50;;;1.00;;